Fort Stockton Pecos County Airport
KFST : now visible

Airfield :











YOU CAN JOIN US ON...

 
LOGIN :

Register | Disclaimer

   EN    FR    IT 

 









Legend :    VFR   Marginal VFR   IFR   Intensive IFR   Very Intensive IFR
Visi :
Ceiling :
>= 8 km
>= 3000ft
5 to 8 km
1000 to 3000 ft
1500m to 5 km
500 to 1000 ft
800 to 1500m
200 to 500 ft
< 800m
< 200 ft
Symbols :   Thunderstorms  Fog  Heavy snow  Heavy precipitations  Wind > 20 kt







- Airport Elevation : 3011 ft


KFST - Fort Stockton Pecos County

CURRENT METAR :
  • 220153Z AUTO 15016G25KT 10SM CLR 25/12 A2988 RMK AO2 SLP074 T02500122

EXPIRED METARs :
  • 220053Z AUTO 14012G22KT 10SM CLR 28/10 A2986 RMK AO2 SLP070 T02780100
  • 212353Z AUTO 14010G18KT 10SM CLR 31/07 A2984 RMK AO2 SLP059 T03110067 10339 20294 56010

TAF KFST
Valid from the 22 at 00:00 until the 23 at 00:00 UTC


212324Z 2200/2224 18015KT P6SM SKC
FM220300 16011KT P6SM SCT250
KZAB FIR / North America



MET'MAP, your aeronautical weather chart ! - Copyright ORBIFLY December 2007 - Disclaimer

ORBIFLY MET'MAP TEAM :

Programming & Development : Alexandra Zaïnal
Concept & Development : Baudouin d'Aumeries
Co-Development & Prog : Marc-Olivier Méhu
Technical & hardware support : Manuel Goepfert

Contact : metmap@orbifly.com




SOURCES & CREDITS :

   NOAA       Earth
Advisory